createdAt,value
2019-04-07T00:01:06.083Z,22.06
2019-04-07T00:03:32.323Z,22.06
2019-04-07T00:05:58.571Z,22.06
2019-04-07T00:08:24.145Z,22.06
2019-04-07T00:10:50.569Z,22.06
2019-04-07T00:13:16.178Z,22.05
2019-04-07T00:15:43.252Z,22.04
2019-04-07T00:18:08.194Z,22.04
2019-04-07T00:20:34.186Z,22.05
2019-04-07T00:23:00.201Z,22.04
2019-04-07T00:25:26.226Z,22.04
2019-04-07T00:27:52.263Z,22.04
2019-04-07T00:30:18.258Z,22.03
2019-04-07T00:32:44.304Z,22.03
2019-04-07T00:35:22.191Z,22.02
2019-04-07T00:37:36.365Z,22.03
2019-04-07T00:40:02.351Z,22.02
2019-04-07T00:42:28.939Z,22.02
2019-04-07T00:44:54.380Z,22.01
2019-04-07T00:47:20.852Z,22.01
2019-04-07T00:49:46.563Z,22.01
2019-04-07T00:52:12.871Z,22.00
2019-04-07T00:54:38.422Z,22.00
2019-04-07T00:57:04.474Z,22.00
2019-04-07T00:59:30.857Z,21.99
2019-04-07T01:01:56.762Z,21.99
2019-04-07T01:04:22.450Z,21.99
2019-04-07T01:06:48.490Z,21.98
2019-04-07T01:09:14.539Z,21.98
2019-04-07T01:11:40.529Z,21.98
2019-04-07T01:14:07.009Z,21.98
2019-04-07T01:16:32.764Z,21.97
2019-04-07T01:18:59.150Z,21.97
2019-04-07T01:21:24.962Z,21.97
2019-04-07T01:23:51.064Z,21.97
2019-04-07T01:26:16.625Z,21.97
2019-04-07T01:28:42.968Z,21.97
2019-04-07T01:31:08.786Z,21.97
2019-04-07T01:33:34.686Z,21.96
2019-04-07T01:36:00.822Z,21.95
2019-04-07T01:38:26.780Z,21.96
2019-04-07T01:40:52.689Z,21.95
2019-04-07T01:43:18.702Z,21.95
2019-04-07T01:45:44.808Z,21.94
2019-04-07T01:48:11.397Z,21.94
2019-04-07T01:50:37.307Z,21.94
2019-04-07T01:53:03.406Z,21.94
2019-04-07T01:55:28.830Z,21.93
2019-04-07T01:57:55.289Z,21.93
2019-04-07T02:00:21.531Z,21.93
2019-04-07T02:02:46.868Z,21.93
2019-04-07T02:05:13.404Z,21.93
2019-04-07T02:07:39.110Z,21.93
2019-04-07T02:10:05.427Z,21.92
2019-04-07T02:12:31.358Z,21.92
2019-04-07T02:14:57.439Z,21.92
2019-04-07T02:17:22.945Z,21.92
2019-04-07T02:19:49.104Z,21.91
2019-04-07T02:22:14.956Z,21.92
2019-04-07T02:24:41.086Z,21.91
2019-04-07T02:27:07.607Z,21.91
2019-04-07T02:29:33.460Z,21.91
2019-04-07T02:31:59.016Z,21.91
2019-04-07T02:34:25.728Z,21.91
2019-04-07T02:36:51.119Z,21.91
2019-04-07T02:39:17.399Z,21.91
2019-04-07T02:41:43.333Z,21.91
2019-04-07T02:44:09.385Z,21.90
2019-04-07T02:46:35.218Z,21.90
2019-04-07T02:49:01.872Z,21.90
2019-04-07T02:51:27.238Z,21.90
2019-04-07T02:53:53.245Z,21.91
2019-04-07T02:56:19.271Z,21.90
2019-04-07T02:58:45.282Z,21.91
2019-04-07T03:01:11.540Z,21.90
2019-04-07T03:03:37.307Z,21.90
2019-04-07T03:06:03.610Z,21.90
2019-04-07T03:08:30.089Z,21.90
2019-04-07T03:10:55.487Z,21.90
2019-04-07T03:13:21.343Z,21.90
2019-04-07T03:15:48.308Z,21.90
2019-04-07T03:18:14.215Z,21.90
2019-04-07T03:20:39.365Z,21.90
2019-04-07T03:23:05.411Z,21.90
2019-04-07T03:25:32.364Z,21.89
2019-04-07T03:27:57.446Z,21.90
2019-04-07T03:30:25.906Z,21.90
2019-04-07T03:32:53.252Z,21.90
2019-04-07T03:35:18.217Z,21.89
2019-04-07T03:37:44.800Z,21.89
2019-04-07T03:40:08.308Z,21.90
2019-04-07T03:42:34.334Z,21.89
2019-04-07T03:44:59.543Z,21.89
2019-04-07T03:47:25.946Z,21.89
2019-04-07T03:49:51.557Z,21.90
2019-04-07T03:52:17.582Z,21.90
2019-04-07T03:54:43.571Z,21.90
2019-04-07T03:57:09.632Z,21.89
2019-04-07T03:59:36.407Z,21.90
2019-04-07T04:02:01.739Z,21.89
2019-04-07T04:04:28.434Z,21.89
2019-04-07T04:06:54.694Z,21.89
2019-04-07T04:09:19.766Z,21.89
2019-04-07T04:11:45.751Z,21.89
2019-04-07T04:14:11.848Z,21.89
2019-04-07T04:16:37.868Z,21.89
2019-04-07T04:19:05.015Z,21.90
2019-04-07T04:21:30.751Z,21.89
2019-04-07T04:23:55.897Z,21.90
2019-04-07T04:26:21.923Z,21.90
2019-04-07T04:28:48.751Z,21.90
2019-04-07T04:31:14.115Z,21.90
2019-04-07T04:33:40.600Z,21.91
2019-04-07T04:36:05.975Z,21.92
2019-04-07T04:38:31.995Z,21.92
2019-04-07T04:40:58.143Z,21.92
2019-04-07T04:43:24.006Z,21.92
2019-04-07T04:45:50.516Z,21.93
2019-04-07T04:48:16.041Z,21.93
2019-04-07T04:50:42.117Z,21.92
2019-04-07T04:53:09.269Z,21.94
2019-04-07T04:55:34.993Z,21.93
2019-04-07T04:58:00.254Z,21.95
2019-04-07T05:00:26.654Z,21.95
2019-04-07T05:02:52.504Z,21.94
2019-04-07T05:05:18.255Z,21.94
2019-04-07T05:07:55.213Z,21.95
2019-04-07T05:10:10.324Z,21.96
2019-04-07T05:12:36.777Z,21.96
2019-04-07T05:15:02.273Z,21.96
2019-04-07T05:17:28.807Z,21.97
2019-04-07T05:19:54.942Z,21.97
2019-04-07T05:22:20.372Z,21.97
2019-04-07T05:24:46.691Z,21.97
2019-04-07T05:27:12.779Z,21.97
2019-04-07T05:29:39.029Z,21.97
2019-04-07T05:32:04.585Z,21.98
2019-04-07T05:34:31.104Z,21.98
2019-04-07T05:36:56.437Z,21.97
2019-04-07T05:39:22.984Z,21.98
2019-04-07T05:41:49.028Z,21.97
2019-04-07T05:44:14.515Z,21.97
2019-04-07T05:46:42.572Z,21.97
2019-04-07T05:49:06.658Z,21.97
2019-04-07T05:51:32.759Z,21.97
2019-04-07T05:53:59.270Z,21.98
2019-04-07T05:56:28.127Z,21.97
2019-04-07T05:58:50.622Z,21.97
2019-04-07T06:01:22.539Z,21.97
2019-04-07T06:03:43.629Z,21.96
2019-04-07T06:06:09.345Z,21.97
2019-04-07T06:08:38.704Z,21.98
2019-04-07T06:11:02.322Z,21.98
2019-04-07T06:13:26.706Z,21.97
2019-04-07T06:15:53.234Z,21.98
2019-04-07T06:18:18.722Z,21.98
2019-04-07T06:20:45.799Z,21.98
2019-04-07T06:23:10.741Z,21.98
2019-04-07T06:25:40.859Z,21.99
2019-04-07T06:28:03.345Z,22.00
2019-04-07T06:30:31.189Z,22.00
2019-04-07T06:32:55.427Z,22.01
2019-04-07T06:35:20.889Z,22.01
2019-04-07T06:37:47.679Z,22.02
2019-04-07T06:40:13.940Z,22.03
2019-04-07T06:42:40.474Z,22.04
2019-04-07T06:45:06.255Z,22.04
2019-04-07T06:47:32.904Z,22.05
2019-04-07T06:49:57.533Z,22.05
2019-04-07T06:52:23.877Z,22.07
2019-04-07T06:54:53.476Z,22.07
2019-04-07T06:57:15.598Z,22.07
2019-04-07T06:59:45.530Z,22.07
2019-04-07T07:02:07.626Z,22.07
2019-04-07T07:04:33.748Z,22.08
2019-04-07T07:07:00.551Z,22.09
2019-04-07T07:09:26.554Z,22.09
2019-04-07T07:11:51.756Z,22.11
2019-04-07T07:14:31.409Z,22.10
2019-04-07T07:16:45.927Z,22.10
2019-04-07T07:19:10.619Z,22.10
2019-04-07T07:21:38.722Z,22.10
2019-04-07T07:24:02.359Z,22.10
2019-04-07T07:26:28.430Z,22.10
2019-04-07T07:28:54.307Z,22.11
2019-04-07T07:31:22.839Z,22.11
2019-04-07T07:33:46.094Z,22.11
2019-04-07T07:36:12.387Z,22.12
2019-04-07T07:38:38.480Z,22.11
2019-04-07T07:41:04.762Z,22.11
2019-04-07T07:43:30.240Z,22.12
2019-04-07T07:45:56.740Z,22.11
2019-04-07T07:48:26.206Z,22.12
2019-04-07T07:50:48.745Z,22.12
2019-04-07T07:53:14.218Z,22.12
2019-04-07T07:55:40.260Z,22.12
2019-04-07T07:58:06.242Z,22.13
2019-04-07T08:00:35.250Z,22.13
2019-04-07T08:02:58.292Z,22.15
2019-04-07T08:05:24.821Z,22.15
2019-04-07T08:07:51.050Z,22.15
2019-04-07T08:10:16.954Z,22.15
2019-04-07T08:12:42.322Z,22.17
2019-04-07T08:15:09.136Z,22.17
2019-04-07T08:17:34.379Z,22.18
2019-04-07T08:20:01.035Z,22.20
2019-04-07T08:22:32.490Z,22.21
2019-04-07T08:24:53.418Z,22.22
2019-04-07T08:27:19.388Z,22.21
2019-04-07T08:29:45.208Z,22.20
2019-04-07T08:32:11.098Z,22.19
2019-04-07T08:34:37.197Z,22.19
2019-04-07T08:37:03.732Z,22.17
2019-04-07T08:39:32.326Z,22.18
2019-04-07T08:41:54.919Z,22.18
2019-04-07T08:44:21.558Z,22.18
2019-04-07T08:46:46.973Z,22.18
2019-04-07T08:49:12.991Z,22.18
2019-04-07T08:51:39.431Z,22.17
2019-04-07T08:54:05.877Z,22.17
2019-04-07T08:56:31.050Z,22.17
2019-04-07T08:58:57.039Z,22.17
2019-04-07T09:01:23.778Z,22.18
2019-04-07T09:03:49.677Z,22.18
2019-04-07T09:06:15.148Z,22.17
2019-04-07T09:08:41.152Z,22.18
2019-04-07T09:11:07.827Z,22.18
2019-04-07T09:13:34.194Z,22.19
2019-04-07T09:15:59.975Z,22.19
2019-04-07T09:18:25.162Z,22.21
2019-04-07T09:20:51.820Z,22.23
2019-04-07T09:23:17.551Z,22.24
2019-04-07T09:25:43.713Z,22.23
2019-04-07T09:28:09.998Z,22.23
2019-04-07T09:30:35.600Z,22.24
2019-04-07T09:33:01.377Z,22.24
2019-04-07T09:35:27.230Z,22.24
2019-04-07T09:37:54.153Z,22.23
2019-04-07T09:40:20.089Z,22.23
2019-04-07T09:42:45.971Z,22.25
2019-04-07T09:45:12.700Z,22.27
2019-04-07T09:47:38.022Z,22.29
2019-04-07T09:50:04.543Z,22.30
2019-04-07T09:52:30.514Z,22.30
2019-04-07T09:54:55.812Z,22.30
2019-04-07T09:57:21.826Z,22.30
2019-04-07T09:59:50.856Z,22.31
2019-04-07T10:02:14.565Z,22.31
2019-04-07T10:04:42.472Z,22.32
2019-04-07T10:07:09.216Z,22.32
2019-04-07T10:09:32.220Z,22.32
2019-04-07T10:11:57.975Z,22.32
2019-04-07T10:14:23.986Z,22.32
2019-04-07T10:16:50.686Z,22.32
2019-04-07T10:19:16.014Z,22.33
2019-04-07T10:21:42.872Z,22.32
2019-04-07T10:24:08.154Z,22.32
2019-04-07T10:26:34.172Z,22.32
2019-04-07T10:29:00.601Z,22.33
2019-04-07T10:31:26.194Z,22.34
2019-04-07T10:33:52.635Z,22.33
2019-04-07T10:36:18.223Z,22.34
2019-04-07T10:38:45.033Z,22.34
2019-04-07T10:41:10.725Z,22.35
2019-04-07T10:43:36.417Z,22.35
2019-04-07T10:46:02.409Z,22.36
2019-04-07T10:48:28.648Z,22.36
2019-04-07T10:50:54.399Z,22.36
2019-04-07T10:53:20.657Z,22.37
2019-04-07T10:55:46.598Z,22.37
2019-04-07T10:58:12.479Z,22.38
2019-04-07T11:00:41.346Z,22.38
2019-04-07T11:03:04.886Z,22.39
2019-04-07T11:05:30.574Z,22.40
2019-04-07T11:07:56.986Z,22.40
2019-04-07T11:10:32.881Z,22.40
2019-04-07T11:12:48.677Z,22.40
2019-04-07T11:15:14.629Z,22.40
2019-04-07T11:17:40.813Z,22.40
2019-04-07T11:20:06.657Z,22.42
2019-04-07T11:22:33.785Z,22.41
2019-04-07T11:24:59.178Z,22.42
2019-04-07T11:27:25.446Z,22.41
2019-04-07T11:29:50.749Z,22.40
2019-04-07T11:32:17.569Z,22.40
2019-04-07T11:34:42.757Z,22.39
2019-04-07T11:37:10.254Z,22.40
2019-04-07T11:39:37.308Z,22.39
2019-04-07T11:42:04.782Z,22.39
2019-04-07T11:44:29.321Z,22.38
2019-04-07T11:46:55.067Z,22.38
2019-04-07T11:49:21.417Z,22.37
2019-04-07T11:51:47.834Z,22.37
2019-04-07T11:54:13.175Z,22.37
2019-04-07T11:56:40.024Z,22.37
2019-04-07T11:59:06.885Z,22.37
2019-04-07T12:01:31.299Z,22.36
2019-04-07T12:03:57.297Z,22.36
2019-04-07T12:06:25.188Z,22.36
2019-04-07T12:08:50.027Z,22.36
2019-04-07T12:11:15.673Z,22.36
2019-04-07T12:13:44.096Z,22.35
2019-04-07T12:16:08.044Z,22.35
2019-04-07T12:18:34.089Z,22.35
2019-04-07T12:21:02.337Z,22.34
2019-04-07T12:23:27.469Z,22.34
2019-04-07T12:25:51.554Z,22.33
2019-04-07T12:28:19.096Z,22.34
2019-04-07T12:30:43.749Z,22.33
2019-04-07T12:33:09.910Z,22.33
2019-04-07T12:35:36.548Z,22.32
2019-04-07T12:38:01.835Z,22.32
2019-04-07T12:40:27.984Z,22.32
2019-04-07T12:42:54.579Z,22.32
2019-04-07T12:45:20.048Z,22.32
2019-04-07T12:47:46.066Z,22.32
2019-04-07T12:50:14.709Z,22.29
2019-04-07T12:52:38.249Z,22.31
2019-04-07T12:55:04.835Z,22.31
2019-04-07T12:57:30.798Z,22.30
2019-04-07T12:59:57.060Z,22.30
2019-04-07T13:02:22.901Z,22.29
2019-04-07T13:04:48.663Z,22.29
2019-04-07T13:07:18.458Z,22.29
2019-04-07T13:09:41.855Z,22.29
2019-04-07T13:12:07.608Z,22.29
2019-04-07T13:14:35.273Z,22.29
2019-04-07T13:17:01.234Z,22.29
2019-04-07T13:19:25.316Z,22.29
2019-04-07T13:21:53.192Z,22.28
2019-04-07T13:24:28.846Z,22.28
2019-04-07T13:26:43.501Z,22.27
2019-04-07T13:29:09.638Z,22.27
2019-04-07T13:31:35.206Z,22.27
2019-04-07T13:34:02.781Z,22.27
2019-04-07T13:36:28.012Z,22.26
2019-04-07T13:38:53.416Z,22.25
2019-04-07T13:41:20.287Z,22.26
2019-04-07T13:43:45.640Z,22.26
2019-04-07T13:46:18.804Z,22.25
2019-04-07T13:48:37.946Z,22.25
2019-04-07T13:51:04.263Z,22.25
2019-04-07T13:53:31.033Z,22.25
2019-04-07T13:55:55.900Z,22.24
2019-04-07T13:58:21.950Z,22.24
2019-04-07T14:00:48.365Z,22.24
2019-04-07T14:03:14.506Z,22.23
2019-04-07T14:05:40.982Z,22.23
2019-04-07T14:08:07.000Z,22.24
2019-04-07T14:10:35.608Z,22.23
2019-04-07T14:12:58.653Z,22.23
2019-04-07T14:15:24.792Z,22.23
2019-04-07T14:17:50.734Z,22.23
2019-04-07T14:20:16.530Z,22.22
2019-04-07T14:22:42.580Z,22.22
2019-04-07T14:25:09.146Z,22.22
2019-04-07T14:27:35.104Z,22.21
2019-04-07T14:30:01.387Z,22.21
2019-04-07T14:32:27.346Z,22.22
2019-04-07T14:34:53.007Z,22.22
2019-04-07T14:37:20.258Z,22.22
2019-04-07T14:39:45.523Z,22.21
2019-04-07T14:42:11.962Z,22.21
2019-04-07T14:44:36.997Z,22.21
2019-04-07T14:47:03.250Z,22.20
2019-04-07T14:49:29.795Z,22.20
2019-04-07T14:51:55.919Z,22.20
2019-04-07T14:54:21.206Z,22.19
2019-04-07T14:56:47.724Z,22.19
2019-04-07T14:59:13.270Z,22.19
2019-04-07T15:01:39.660Z,22.19
2019-04-07T15:04:06.358Z,22.19
2019-04-07T15:06:33.660Z,22.18
2019-04-07T15:09:01.197Z,22.18
2019-04-07T15:11:23.823Z,22.17
2019-04-07T15:13:50.565Z,22.17
2019-04-07T15:16:16.554Z,22.17
2019-04-07T15:18:42.187Z,22.17
2019-04-07T15:21:08.029Z,22.17
2019-04-07T15:23:34.113Z,22.16
2019-04-07T15:26:00.301Z,22.16
2019-04-07T15:28:29.620Z,22.15
2019-04-07T15:30:52.359Z,22.15
2019-04-07T15:33:18.389Z,22.15
2019-04-07T15:35:47.236Z,22.17
2019-04-07T15:38:10.944Z,22.17
2019-04-07T15:40:36.591Z,22.19
2019-04-07T15:43:04.757Z,22.20
2019-04-07T15:45:28.731Z,22.23
2019-04-07T15:47:55.220Z,22.29
2019-04-07T15:50:21.421Z,22.29
2019-04-07T15:52:47.344Z,22.28
2019-04-07T15:55:13.490Z,22.28
2019-04-07T15:57:38.863Z,22.28
2019-04-07T16:00:05.498Z,22.29
2019-04-07T16:02:30.946Z,22.36
2019-04-07T16:05:00.440Z,22.40
2019-04-07T16:07:23.098Z,22.43
2019-04-07T16:09:53.857Z,22.47
2019-04-07T16:12:15.124Z,22.51
2019-04-07T16:14:44.927Z,22.54
2019-04-07T16:17:09.534Z,22.57
2019-04-07T16:19:38.210Z,22.61
2019-04-07T16:22:00.027Z,22.64
2019-04-07T16:24:25.787Z,22.67
2019-04-07T16:26:51.540Z,22.69
2019-04-07T16:29:19.022Z,22.67
2019-04-07T16:31:43.659Z,22.67
2019-04-07T16:34:10.427Z,22.65
2019-04-07T16:36:36.588Z,22.64
2019-04-07T16:39:02.310Z,22.63
2019-04-07T16:41:29.834Z,22.63
2019-04-07T16:43:58.788Z,22.62
2019-04-07T16:46:24.697Z,22.61
2019-04-07T16:48:49.681Z,22.60
2019-04-07T16:51:15.892Z,22.58
2019-04-07T16:53:42.987Z,22.57
2019-04-07T16:56:07.787Z,22.57
2019-04-07T16:58:37.204Z,22.58
2019-04-07T17:01:00.057Z,22.57
2019-04-07T17:03:27.446Z,22.58
2019-04-07T17:05:55.683Z,22.58
2019-04-07T17:08:21.076Z,22.57
2019-04-07T17:10:44.176Z,22.56
2019-04-07T17:13:19.834Z,22.58
2019-04-07T17:15:39.573Z,22.56
2019-04-07T17:18:02.339Z,22.56
2019-04-07T17:20:33.291Z,22.56
2019-04-07T17:22:54.355Z,22.55
2019-04-07T17:25:20.623Z,22.54
2019-04-07T17:27:46.599Z,22.54
2019-04-07T17:30:12.524Z,22.53
2019-04-07T17:32:39.185Z,22.52
2019-04-07T17:35:04.565Z,22.54
2019-04-07T17:37:30.915Z,22.55
2019-04-07T17:39:56.966Z,22.54
2019-04-07T17:42:26.226Z,22.55
2019-04-07T17:44:50.462Z,22.54
2019-04-07T17:47:15.701Z,22.54
2019-04-07T17:49:40.943Z,22.55
2019-04-07T17:52:09.937Z,22.55
2019-04-07T17:54:32.996Z,22.56
2019-04-07T17:57:01.214Z,22.55
2019-04-07T17:59:26.130Z,22.55
2019-04-07T18:01:54.404Z,22.55
2019-04-07T18:04:17.362Z,22.57
2019-04-07T18:06:43.964Z,22.57
2019-04-07T18:09:12.346Z,22.58
2019-04-07T18:11:35.370Z,22.57
2019-04-07T18:14:02.111Z,22.55
2019-04-07T18:16:27.446Z,22.55
2019-04-07T18:18:56.222Z,22.56
2019-04-07T18:21:19.551Z,22.56
2019-04-07T18:23:45.679Z,22.55
2019-04-07T18:26:14.423Z,22.54
2019-04-07T18:28:37.828Z,22.53
2019-04-07T18:31:05.352Z,22.51
2019-04-07T18:33:29.949Z,22.50
2019-04-07T18:35:56.129Z,22.53
2019-04-07T18:38:22.846Z,22.54
2019-04-07T18:40:48.342Z,22.54
2019-04-07T18:43:16.622Z,22.55
2019-04-07T18:45:44.057Z,22.58
2019-04-07T18:48:06.444Z,22.58
2019-04-07T18:50:32.783Z,22.57
2019-04-07T18:53:00.117Z,22.58
2019-04-07T18:55:27.056Z,22.57
2019-04-07T18:57:50.865Z,22.55
2019-04-07T19:00:16.935Z,22.56
2019-04-07T19:02:46.067Z,22.56
2019-04-07T19:05:08.781Z,22.55
2019-04-07T19:07:35.767Z,22.55
2019-04-07T19:10:08.036Z,22.53
2019-04-07T19:12:28.714Z,22.54
2019-04-07T19:15:02.478Z,22.53
2019-04-07T19:17:21.729Z,22.53
2019-04-07T19:19:46.190Z,22.52
2019-04-07T19:22:11.290Z,22.52
2019-04-07T19:24:37.862Z,22.51
2019-04-07T19:27:12.699Z,22.52
2019-04-07T19:29:29.668Z,22.51
2019-04-07T19:31:55.591Z,22.51
2019-04-07T19:34:22.516Z,22.50
2019-04-07T19:36:48.222Z,22.50
2019-04-07T19:39:14.679Z,22.49
2019-04-07T19:41:40.488Z,22.49
2019-04-07T19:44:06.031Z,22.49
2019-04-07T19:46:31.752Z,22.48
2019-04-07T19:48:57.754Z,22.48
2019-04-07T19:51:26.680Z,22.48
2019-04-07T19:53:49.811Z,22.47
2019-04-07T19:56:15.824Z,22.47
2019-04-07T19:58:42.635Z,22.47
2019-04-07T20:01:08.419Z,22.47
2019-04-07T20:03:36.983Z,22.46
2019-04-07T20:06:00.673Z,22.46
2019-04-07T20:08:26.860Z,22.46
2019-04-07T20:10:53.242Z,22.46
2019-04-07T20:13:17.993Z,22.45
2019-04-07T20:15:44.975Z,22.45
2019-04-07T20:18:10.495Z,22.45
2019-04-07T20:20:38.497Z,22.45
2019-04-07T20:23:04.425Z,22.44
2019-04-07T20:25:30.072Z,22.45
2019-04-07T20:27:57.276Z,22.45
2019-04-07T20:30:22.226Z,22.45
2019-04-07T20:32:48.243Z,22.44
2019-04-07T20:35:15.473Z,22.44
2019-04-07T20:37:41.178Z,22.44
2019-04-07T20:40:06.654Z,22.44
2019-04-07T20:42:32.451Z,22.44
2019-04-07T20:45:04.242Z,22.43
2019-04-07T20:47:26.350Z,22.43
2019-04-07T20:49:51.546Z,22.43
2019-04-07T20:52:17.783Z,22.43
2019-04-07T20:54:42.502Z,22.43
2019-04-07T20:57:09.231Z,22.43
2019-04-07T20:59:45.695Z,22.42
2019-04-07T21:02:06.018Z,22.42
2019-04-07T21:04:26.597Z,22.42
2019-04-07T21:06:52.552Z,22.41
2019-04-07T21:09:19.432Z,22.41
2019-04-07T21:11:47.305Z,22.40
2019-04-07T21:14:11.351Z,22.40
2019-04-07T21:16:36.866Z,22.39
2019-04-07T21:19:06.784Z,22.39
2019-04-07T21:21:29.187Z,22.39
2019-04-07T21:23:55.267Z,22.38
2019-04-07T21:26:20.980Z,22.38
2019-04-07T21:28:47.183Z,22.37
2019-04-07T21:31:16.057Z,22.36
2019-04-07T21:33:38.934Z,22.37
2019-04-07T21:36:07.740Z,22.37
2019-04-07T21:38:31.269Z,22.36
2019-04-07T21:40:57.761Z,22.36
2019-04-07T21:43:25.840Z,22.35
2019-04-07T21:45:50.807Z,22.36
2019-04-07T21:48:15.775Z,22.35
2019-04-07T21:50:42.487Z,22.35
2019-04-07T21:53:07.038Z,22.35
2019-04-07T21:55:33.039Z,22.34
2019-04-07T21:57:59.798Z,22.34
2019-04-07T22:00:27.050Z,22.33
2019-04-07T22:02:51.046Z,22.33
2019-04-07T22:05:17.789Z,22.33
2019-04-07T22:07:43.994Z,22.32
2019-04-07T22:10:09.446Z,22.32
2019-04-07T22:12:35.927Z,22.32
2019-04-07T22:15:01.153Z,22.31
2019-04-07T22:17:27.690Z,22.32
2019-04-07T22:19:53.177Z,22.31
2019-04-07T22:22:19.213Z,22.30
2019-04-07T22:24:45.202Z,22.31
2019-04-07T22:27:11.312Z,22.31
2019-04-07T22:29:37.501Z,22.30
2019-04-07T22:32:03.399Z,22.30
2019-04-07T22:34:32.219Z,22.30
2019-04-07T22:36:55.837Z,22.29
2019-04-07T22:39:21.299Z,22.29
2019-04-07T22:41:48.281Z,22.29
2019-04-07T22:44:13.404Z,22.29
2019-04-07T22:46:39.593Z,22.28
2019-04-07T22:49:05.305Z,22.29
2019-04-07T22:51:31.320Z,22.28
2019-04-07T22:53:57.746Z,22.28
2019-04-07T22:56:24.364Z,22.27
2019-04-07T22:58:49.346Z,22.28
2019-04-07T23:01:15.342Z,22.27
2019-04-07T23:03:41.341Z,22.26
2019-04-07T23:06:07.513Z,22.26
2019-04-07T23:08:33.342Z,22.26
2019-04-07T23:11:00.095Z,22.26
2019-04-07T23:13:25.840Z,22.26
2019-04-07T23:15:52.303Z,22.25
2019-04-07T23:18:17.904Z,22.25
2019-04-07T23:20:43.919Z,22.24
2019-04-07T23:23:09.420Z,22.24
2019-04-07T23:25:36.429Z,22.24
2019-04-07T23:28:01.455Z,22.24
2019-04-07T23:30:27.824Z,22.24
2019-04-07T23:32:53.546Z,22.23
2019-04-07T23:35:20.100Z,22.22
2019-04-07T23:37:45.491Z,22.22
2019-04-07T23:40:11.514Z,22.23
2019-04-07T23:42:38.269Z,22.22
2019-04-07T23:45:03.530Z,22.21
2019-04-07T23:47:29.528Z,22.22
2019-04-07T23:49:55.598Z,22.21
2019-04-07T23:52:21.577Z,22.21
2019-04-07T23:54:48.275Z,22.21
2019-04-07T23:57:13.600Z,22.21
2019-04-07T23:59:40.097Z,22.21
